createdAt,value
2022-08-03T00:01:49.474Z,46.09
2022-08-03T00:04:16.407Z,46.14
2022-08-03T00:06:43.062Z,46.42
2022-08-03T00:09:10.338Z,46.15
2022-08-03T00:11:37.439Z,45.95
2022-08-03T00:14:05.266Z,45.88
2022-08-03T00:16:31.935Z,46.23
2022-08-03T00:18:58.685Z,46.69
2022-08-03T00:21:28.053Z,46.75
2022-08-03T00:23:54.693Z,46.86
2022-08-03T00:26:21.870Z,47.04
2022-08-03T00:28:49.132Z,47.32
2022-08-03T00:31:16.147Z,47.39
2022-08-03T00:33:59.045Z,47.45
2022-08-03T00:36:27.761Z,47.29
2022-08-03T00:38:55.137Z,47.46
2022-08-03T00:41:21.709Z,47.69
2022-08-03T00:43:48.504Z,47.93
2022-08-03T00:46:19.214Z,47.82
2022-08-03T00:48:49.567Z,47.83
2022-08-03T00:51:16.574Z,48.02
2022-08-03T00:53:43.583Z,48.16
2022-08-03T00:56:14.070Z,48.44
2022-08-03T00:58:41.136Z,48.44
2022-08-03T01:01:07.721Z,48.41
2022-08-03T01:03:34.514Z,48.14
2022-08-03T01:06:12.819Z,47.82
2022-08-03T01:08:58.673Z,48.01
2022-08-03T01:11:33.992Z,47.97
2022-08-03T01:14:18.838Z,48.30
2022-08-03T01:16:59.311Z,48.30
2022-08-03T01:19:50.618Z,48.78
2022-08-03T01:22:29.146Z,48.73
2022-08-03T01:24:58.479Z,48.68
2022-08-03T01:27:31.670Z,48.43
2022-08-03T01:30:10.056Z,48.32
2022-08-03T01:33:02.784Z,48.77
2022-08-03T01:35:42.299Z,48.58
2022-08-03T01:38:15.667Z,48.48
2022-08-03T01:40:44.839Z,48.71
2022-08-03T01:44:27.263Z,48.71
2022-08-03T01:46:04.212Z,49.01
2022-08-03T01:48:32.129Z,48.98
2022-08-03T01:51:00.101Z,49.66
2022-08-03T01:53:27.997Z,49.83
2022-08-03T01:55:57.351Z,49.71
2022-08-03T01:58:24.883Z,50.00
2022-08-03T02:00:52.987Z,49.99
2022-08-03T02:03:23.186Z,50.13
2022-08-03T02:06:06.114Z,50.11
2022-08-03T02:08:41.814Z,50.21
2022-08-03T02:11:08.439Z,50.47
2022-08-03T02:13:35.530Z,50.60
2022-08-03T02:16:03.960Z,50.62
2022-08-03T02:18:32.666Z,51.16
2022-08-03T02:21:02.380Z,51.06
2022-08-03T02:23:38.190Z,50.86
2022-08-03T02:26:06.921Z,50.93
2022-08-03T02:28:37.173Z,51.21
2022-08-03T02:31:07.977Z,51.01
2022-08-03T02:33:38.971Z,51.05
2022-08-03T02:36:07.917Z,50.72
2022-08-03T02:38:38.912Z,50.75
2022-08-03T02:41:08.976Z,50.61
2022-08-03T02:43:41.267Z,50.87
2022-08-03T02:46:30.355Z,51.09
2022-08-03T02:48:58.797Z,51.29
2022-08-03T02:51:29.991Z,51.53
2022-08-03T02:54:00.426Z,51.81
2022-08-03T02:56:30.927Z,52.26
2022-08-03T02:58:59.535Z,52.04
2022-08-03T03:01:29.019Z,52.36
2022-08-03T03:03:57.577Z,52.41
2022-08-03T03:06:26.832Z,52.36
2022-08-03T03:08:59.801Z,52.73
2022-08-03T03:11:27.248Z,53.22
2022-08-03T03:13:56.926Z,53.27
2022-08-03T03:16:26.016Z,53.66
2022-08-03T03:18:54.415Z,53.66
2022-08-03T03:21:22.107Z,53.89
2022-08-03T03:23:49.315Z,53.57
2022-08-03T03:26:16.433Z,53.73
2022-08-03T03:28:43.870Z,53.57
2022-08-03T03:31:11.530Z,53.66
2022-08-03T03:33:39.017Z,54.08
2022-08-03T03:36:07.043Z,54.36
2022-08-03T03:38:33.856Z,53.94
2022-08-03T03:41:01.159Z,53.91
2022-08-03T03:43:29.329Z,54.31
2022-08-03T03:45:57.236Z,54.96
2022-08-03T03:48:25.083Z,54.95
2022-08-03T03:50:51.904Z,54.75
2022-08-03T03:53:18.557Z,54.67
2022-08-03T03:56:01.838Z,54.26
2022-08-03T03:58:30.622Z,54.20
2022-08-03T04:00:57.289Z,54.42
2022-08-03T04:03:23.978Z,54.81
2022-08-03T04:06:09.186Z,54.51
2022-08-03T04:08:54.577Z,54.15
2022-08-03T04:11:34.636Z,54.41
2022-08-03T04:14:18.950Z,54.67
2022-08-03T04:16:53.528Z,54.64
2022-08-03T04:19:28.215Z,54.20
2022-08-03T04:22:00.599Z,54.77
2022-08-03T04:24:41.468Z,54.51
2022-08-03T04:27:12.750Z,54.67
2022-08-03T04:29:48.261Z,54.84
2022-08-03T04:32:17.042Z,55.10
2022-08-03T04:34:44.220Z,55.03
2022-08-03T04:37:34.070Z,54.81
2022-08-03T04:40:03.080Z,55.10
2022-08-03T04:42:33.218Z,55.25
2022-08-03T04:45:01.793Z,55.15
2022-08-03T04:47:32.160Z,54.59
2022-08-03T04:50:01.061Z,54.41
2022-08-03T04:52:27.807Z,54.76
2022-08-03T04:54:54.435Z,54.59
2022-08-03T04:57:22.697Z,54.13
2022-08-03T05:00:02.695Z,53.67
2022-08-03T05:02:31.359Z,53.54
2022-08-03T05:04:58.320Z,53.61
2022-08-03T05:07:25.356Z,53.09
2022-08-03T05:09:57.486Z,53.40
2022-08-03T05:12:32.296Z,53.49
2022-08-03T05:14:59.967Z,53.15
2022-08-03T05:17:26.723Z,52.87
2022-08-03T05:19:53.525Z,52.38
2022-08-03T05:22:20.805Z,52.10
2022-08-03T05:24:47.446Z,51.28
2022-08-03T05:27:19.136Z,50.80
2022-08-03T05:29:46.609Z,50.04
2022-08-03T05:32:13.301Z,49.37
2022-08-03T05:34:39.876Z,48.83
2022-08-03T05:37:07.367Z,47.84
2022-08-03T05:39:35.184Z,47.40
2022-08-03T05:42:02.360Z,46.33
2022-08-03T05:44:29.126Z,44.55
2022-08-03T05:46:57.984Z,44.04
2022-08-03T05:49:24.564Z,43.74
2022-08-03T05:52:00.106Z,43.67
2022-08-03T05:54:57.162Z,43.04
2022-08-03T05:57:27.594Z,42.66
2022-08-03T05:59:58.245Z,42.67
2022-08-03T06:02:26.799Z,42.42
2022-08-03T06:04:54.081Z,42.50
2022-08-03T06:07:20.677Z,42.40
2022-08-03T06:10:35.020Z,41.66
2022-08-03T06:12:37.162Z,41.38
2022-08-03T06:15:05.175Z,41.21
2022-08-03T06:17:37.292Z,40.52
2022-08-03T06:20:05.849Z,40.00
2022-08-03T06:22:32.494Z,39.89
2022-08-03T06:24:59.027Z,39.65
2022-08-03T06:27:37.052Z,39.73
2022-08-03T06:30:05.039Z,39.02
2022-08-03T06:32:32.331Z,38.36
2022-08-03T06:34:58.981Z,38.03
2022-08-03T06:37:27.008Z,37.30
2022-08-03T06:39:54.188Z,36.58
2022-08-03T06:42:21.020Z,36.69
2022-08-03T06:44:49.524Z,36.35
2022-08-03T06:47:16.059Z,35.85
2022-08-03T06:49:42.745Z,35.15
2022-08-03T06:52:09.338Z,34.87
2022-08-03T06:54:36.301Z,34.64
2022-08-03T06:57:03.677Z,34.12
2022-08-03T07:00:09.903Z,33.07
2022-08-03T07:02:19.318Z,32.42
2022-08-03T07:04:49.768Z,31.68
2022-08-03T07:07:17.412Z,31.19
2022-08-03T07:09:56.922Z,30.60
2022-08-03T07:12:24.462Z,29.91
2022-08-03T07:14:51.091Z,29.39
2022-08-03T07:17:18.654Z,29.04
2022-08-03T07:19:45.385Z,28.84
2022-08-03T07:22:12.051Z,28.46
2022-08-03T07:24:38.847Z,28.30
2022-08-03T07:27:05.497Z,28.95
2022-08-03T07:29:34.733Z,28.64
2022-08-03T07:32:02.080Z,28.87
2022-08-03T07:34:28.951Z,28.78
2022-08-03T07:36:55.686Z,28.87
2022-08-03T07:39:22.186Z,28.64
2022-08-03T07:41:51.417Z,27.98
2022-08-03T07:44:21.011Z,28.77
2022-08-03T07:46:47.602Z,27.62
2022-08-03T07:49:14.224Z,26.76
2022-08-03T07:51:40.880Z,26.86
2022-08-03T07:54:07.748Z,26.70
2022-08-03T07:56:34.304Z,26.77
2022-08-03T07:59:02.354Z,27.13
2022-08-03T08:01:29.424Z,25.35
2022-08-03T08:03:56.041Z,24.51
2022-08-03T08:06:22.632Z,24.40
2022-08-03T08:08:49.155Z,24.58
2022-08-03T08:11:15.965Z,23.39
2022-08-03T08:13:42.563Z,23.13
2022-08-03T08:16:09.117Z,22.95
2022-08-03T08:18:35.738Z,22.82
2022-08-03T08:21:03.362Z,23.28
2022-08-03T08:23:42.076Z,22.52
2022-08-03T08:26:09.686Z,22.72
2022-08-03T08:28:36.247Z,22.20
2022-08-03T08:31:02.830Z,22.08
2022-08-03T08:33:48.075Z,20.75
2022-08-03T08:36:16.134Z,20.89
2022-08-03T08:38:44.842Z,19.72
2022-08-03T08:41:13.235Z,19.09
2022-08-03T08:43:40.291Z,18.68
2022-08-03T08:46:10.194Z,18.52
2022-08-03T08:48:41.811Z,18.94
2022-08-03T08:51:11.486Z,18.49
2022-08-03T08:53:41.110Z,18.10
2022-08-03T08:56:10.266Z,18.30
2022-08-03T08:58:50.077Z,17.72
2022-08-03T09:01:21.865Z,16.98
2022-08-03T09:03:48.660Z,16.31
2022-08-03T09:06:15.314Z,16.53
2022-08-03T09:08:42.047Z,16.66
2022-08-03T09:11:08.864Z,16.39
2022-08-03T09:13:39.035Z,16.83
2022-08-03T09:16:22.877Z,17.11
2022-08-03T09:18:52.263Z,17.09
2022-08-03T09:21:37.526Z,16.45
2022-08-03T09:24:13.042Z,15.51
2022-08-03T09:26:50.974Z,15.03
2022-08-03T09:29:20.609Z,14.10
2022-08-03T09:31:47.354Z,14.19
2022-08-03T09:34:17.123Z,13.19
2022-08-03T09:36:49.220Z,12.97
2022-08-03T09:39:41.770Z,13.12
2022-08-03T09:42:10.933Z,12.41
2022-08-03T09:44:42.368Z,11.74
2022-08-03T09:47:10.468Z,11.17
2022-08-03T09:49:38.805Z,10.85
2022-08-03T09:52:39.324Z,10.37
2022-08-03T09:56:32.842Z,9.80
2022-08-03T09:58:07.184Z,9.99
2022-08-03T10:00:54.017Z,9.66
2022-08-03T10:03:20.971Z,9.51
2022-08-03T10:05:47.534Z,10.72
2022-08-03T10:08:19.112Z,10.75
2022-08-03T10:10:47.761Z,9.92
2022-08-03T10:13:15.918Z,9.52
2022-08-03T10:16:23.718Z,9.97
2022-08-03T10:18:29.426Z,9.07
2022-08-03T10:21:03.201Z,9.20
2022-08-03T10:23:34.466Z,9.16
2022-08-03T10:26:04.341Z,9.16
2022-08-03T10:28:59.575Z,8.80
2022-08-03T10:31:31.706Z,8.96
2022-08-03T10:34:00.330Z,8.62
2022-08-03T10:36:30.380Z,8.42
2022-08-03T10:38:57.754Z,8.75
2022-08-03T10:41:30.091Z,9.63
2022-08-03T10:44:02.970Z,9.54
2022-08-03T10:46:29.620Z,9.80
2022-08-03T10:48:56.774Z,10.10
2022-08-03T10:51:24.261Z,9.42
2022-08-03T10:53:54.597Z,9.21
2022-08-03T10:56:54.433Z,9.14
2022-08-03T10:59:45.930Z,8.69
2022-08-03T11:02:14.208Z,8.97
2022-08-03T11:04:41.691Z,8.46
2022-08-03T11:07:17.722Z,8.48
2022-08-03T11:09:48.365Z,8.45
2022-08-03T11:12:32.502Z,8.15
2022-08-03T11:15:02.188Z,8.10
2022-08-03T11:17:28.989Z,8.53
2022-08-03T11:19:56.831Z,7.89
2022-08-03T11:22:25.477Z,8.09
2022-08-03T11:24:54.218Z,7.33
2022-08-03T11:27:32.015Z,6.98
2022-08-03T11:30:09.042Z,7.13
2022-08-03T11:32:46.879Z,7.51
2022-08-03T11:35:16.263Z,7.15
2022-08-03T11:38:03.362Z,7.47
2022-08-03T11:40:52.552Z,7.83
2022-08-03T11:43:21.811Z,7.75
2022-08-03T11:46:06.186Z,7.59
2022-08-03T11:48:43.869Z,8.34
2022-08-03T11:51:23.398Z,7.87
2022-08-03T11:53:57.765Z,7.05
2022-08-03T11:56:25.355Z,6.80
2022-08-03T11:58:58.163Z,7.38
2022-08-03T12:01:41.866Z,7.30
2022-08-03T12:04:08.516Z,7.78
2022-08-03T12:06:54.700Z,7.74
2022-08-03T12:09:21.960Z,7.61
2022-08-03T12:11:59.699Z,8.54
2022-08-03T12:14:50.112Z,8.33
2022-08-03T12:17:15.034Z,8.92
2022-08-03T12:19:42.853Z,9.17
2022-08-03T12:22:09.490Z,9.80
2022-08-03T12:24:43.546Z,10.47
2022-08-03T12:27:10.114Z,10.82
2022-08-03T12:29:37.007Z,10.70
2022-08-03T12:32:03.850Z,11.65
2022-08-03T12:34:47.688Z,11.75
2022-08-03T12:37:20.262Z,13.71
2022-08-03T12:40:02.213Z,14.62
2022-08-03T12:42:34.946Z,13.96
2022-08-03T12:45:20.536Z,13.90
2022-08-03T12:48:01.701Z,14.80
2022-08-03T12:50:31.420Z,14.69
2022-08-03T12:53:00.178Z,14.77
2022-08-03T12:55:57.690Z,14.87
2022-08-03T12:58:35.610Z,15.36
2022-08-03T13:01:05.311Z,15.42
2022-08-03T13:03:45.690Z,15.22
2022-08-03T13:06:19.852Z,15.25
2022-08-03T13:08:47.948Z,15.29
2022-08-03T13:11:22.676Z,15.52
2022-08-03T13:13:50.699Z,15.23
2022-08-03T13:16:19.425Z,15.56
2022-08-03T13:18:48.816Z,16.05
2022-08-03T13:21:20.423Z,16.24
2022-08-03T13:23:47.236Z,16.18
2022-08-03T13:26:13.883Z,16.05
2022-08-03T13:28:40.424Z,16.25
2022-08-03T13:31:07.172Z,17.09
2022-08-03T13:33:34.234Z,16.85
2022-08-03T13:36:00.872Z,16.72
2022-08-03T13:38:27.555Z,17.46
2022-08-03T13:40:55.155Z,17.06
2022-08-03T13:43:22.514Z,17.45
2022-08-03T13:45:53.556Z,17.04
2022-08-03T13:48:37.080Z,17.83
2022-08-03T13:51:11.712Z,17.47
2022-08-03T13:53:49.479Z,17.29
2022-08-03T13:56:16.059Z,17.45
2022-08-03T13:58:42.617Z,17.86
2022-08-03T14:01:09.257Z,17.71
2022-08-03T14:03:35.973Z,18.08
2022-08-03T14:06:02.583Z,18.13
2022-08-03T14:08:29.350Z,18.12
2022-08-03T14:10:56.060Z,17.58
2022-08-03T14:13:23.160Z,17.33
2022-08-03T14:15:51.171Z,17.02
2022-08-03T14:18:27.598Z,17.36
2022-08-03T14:21:01.998Z,17.07
2022-08-03T14:23:32.559Z,17.41
2022-08-03T14:25:59.638Z,17.88
2022-08-03T14:28:26.239Z,17.66
2022-08-03T14:30:54.490Z,17.79
2022-08-03T14:33:21.404Z,17.70
2022-08-03T14:35:48.666Z,17.89
2022-08-03T14:38:15.491Z,18.02
2022-08-03T14:40:42.115Z,17.72
2022-08-03T14:43:08.976Z,17.66
2022-08-03T14:45:35.584Z,17.47
2022-08-03T14:50:30.492Z,17.50
2022-08-03T14:50:52.551Z,17.26
2022-08-03T14:53:19.904Z,17.64
2022-08-03T14:55:50.310Z,17.35
2022-08-03T14:58:20.775Z,17.48
2022-08-03T15:00:49.160Z,18.51
2022-08-03T15:03:16.935Z,18.56
2022-08-03T15:05:44.329Z,18.78
2022-08-03T15:08:11.049Z,18.93
2022-08-03T15:10:40.466Z,18.72
2022-08-03T15:13:14.724Z,18.56
2022-08-03T15:15:42.018Z,18.62
2022-08-03T15:18:08.847Z,18.76
2022-08-03T15:20:51.076Z,18.61
2022-08-03T15:23:18.569Z,18.53
2022-08-03T15:26:28.639Z,18.52
2022-08-03T15:28:32.590Z,18.37
2022-08-03T15:31:01.105Z,18.45
2022-08-03T15:33:28.391Z,19.02
2022-08-03T15:35:56.161Z,18.55
2022-08-03T15:38:26.534Z,18.91
2022-08-03T15:40:54.534Z,19.02
2022-08-03T15:43:22.036Z,19.20
2022-08-03T15:45:51.903Z,18.85
2022-08-03T15:48:26.616Z,18.76
2022-08-03T15:50:54.519Z,19.07
2022-08-03T15:53:21.129Z,18.85
2022-08-03T15:55:47.653Z,19.13
2022-08-03T15:59:09.726Z,18.83
2022-08-03T16:01:02.198Z,18.52
2022-08-03T16:03:34.281Z,19.00
2022-08-03T16:06:05.350Z,18.73
2022-08-03T16:08:32.501Z,18.87
2022-08-03T16:10:59.668Z,19.30
2022-08-03T16:14:13.350Z,18.84
2022-08-03T16:16:13.915Z,19.04
2022-08-03T16:18:40.476Z,18.86
2022-08-03T16:21:07.047Z,18.92
2022-08-03T16:23:39.587Z,18.89
2022-08-03T16:26:09.424Z,18.74
2022-08-03T16:28:38.065Z,19.26
2022-08-03T16:31:06.025Z,19.11
2022-08-03T16:33:33.436Z,19.23
2022-08-03T16:36:00.405Z,19.57
2022-08-03T16:38:27.161Z,19.52
2022-08-03T16:40:53.711Z,19.71
2022-08-03T16:43:24.763Z,19.79
2022-08-03T16:45:51.737Z,19.86
2022-08-03T16:48:19.054Z,19.65
2022-08-03T16:50:46.052Z,19.61
2022-08-03T16:53:16.918Z,19.33
2022-08-03T16:55:52.326Z,19.85
2022-08-03T16:58:34.335Z,20.11
2022-08-03T17:01:24.431Z,19.81
2022-08-03T17:04:02.952Z,20.36
2022-08-03T17:06:35.522Z,20.22
2022-08-03T17:09:08.709Z,20.51
2022-08-03T17:11:37.232Z,20.37
2022-08-03T17:14:09.220Z,20.90
2022-08-03T17:16:38.272Z,20.97
2022-08-03T17:19:07.184Z,20.66
2022-08-03T17:21:39.068Z,20.65
2022-08-03T17:24:12.371Z,20.83
2022-08-03T17:26:45.803Z,20.72
2022-08-03T17:29:19.041Z,21.29
2022-08-03T17:31:54.167Z,20.72
2022-08-03T17:34:26.299Z,21.02
2022-08-03T17:37:12.010Z,21.61
2022-08-03T17:39:58.319Z,21.74
2022-08-03T17:42:31.368Z,21.53
2022-08-03T17:45:02.173Z,22.18
2022-08-03T17:47:41.785Z,21.31
2022-08-03T17:50:24.702Z,21.60
2022-08-03T17:56:04.787Z,21.69
2022-08-03T17:58:42.089Z,21.54
2022-08-03T18:01:57.429Z,22.96
2022-08-03T18:04:30.235Z,23.06
2022-08-03T18:06:59.564Z,23.70
2022-08-03T18:10:04.141Z,22.98
2022-08-03T18:12:26.974Z,22.39
2022-08-03T18:15:01.271Z,22.59
2022-08-03T18:17:55.552Z,22.88
2022-08-03T18:20:34.113Z,22.47
2022-08-03T18:23:08.777Z,22.29
2022-08-03T18:25:45.251Z,23.24
2022-08-03T18:28:16.425Z,23.61
2022-08-03T18:30:53.382Z,22.99
2022-08-03T18:36:17.254Z,23.61
2022-08-03T18:38:47.412Z,23.81
2022-08-03T18:41:20.694Z,23.52
2022-08-03T18:44:06.740Z,23.74
2022-08-03T18:46:54.343Z,24.82
2022-08-03T18:49:35.871Z,24.79
2022-08-03T18:52:17.845Z,25.55
2022-08-03T18:55:02.320Z,25.85
2022-08-03T18:57:48.538Z,26.60
2022-08-03T19:00:17.343Z,26.52
2022-08-03T19:03:02.669Z,25.81
2022-08-03T19:05:53.694Z,25.86
2022-08-03T19:08:53.852Z,26.09
2022-08-03T19:12:12.336Z,26.71
2022-08-03T19:14:28.748Z,26.90
2022-08-03T19:17:08.732Z,26.92
2022-08-03T19:19:43.960Z,26.91
2022-08-03T19:22:16.090Z,26.50
2022-08-03T19:24:45.769Z,26.32
2022-08-03T19:27:13.438Z,26.99
2022-08-03T19:29:59.859Z,27.56
2022-08-03T19:32:29.442Z,27.53
2022-08-03T19:34:57.055Z,27.85
2022-08-03T19:37:38.355Z,27.79
2022-08-03T19:40:10.444Z,27.37
2022-08-03T19:42:42.926Z,27.59
2022-08-03T19:45:15.430Z,27.36
2022-08-03T19:47:47.440Z,28.36
2022-08-03T19:50:15.787Z,28.86
2022-08-03T19:52:47.629Z,29.16
2022-08-03T19:55:15.845Z,29.53
2022-08-03T19:57:46.005Z,30.22
2022-08-03T20:00:14.207Z,30.43
2022-08-03T20:02:42.036Z,28.95
2022-08-03T20:05:11.937Z,29.13
2022-08-03T20:07:42.595Z,29.25
2022-08-03T20:10:15.842Z,29.70
2022-08-03T20:12:44.781Z,29.69
2022-08-03T20:15:12.147Z,29.99
2022-08-03T20:17:56.220Z,30.53
2022-08-03T20:20:36.532Z,31.33
2022-08-03T20:23:18.058Z,29.47
2022-08-03T20:25:58.673Z,31.00
2022-08-03T20:28:29.036Z,31.18
2022-08-03T20:30:56.418Z,31.17
2022-08-03T20:33:27.915Z,31.30
2022-08-03T20:36:10.434Z,31.58
2022-08-03T20:38:43.840Z,31.02
2022-08-03T20:41:14.821Z,30.41
2022-08-03T20:43:41.695Z,30.11
2022-08-03T20:46:32.188Z,30.10
2022-08-03T20:48:57.151Z,29.50
2022-08-03T20:51:50.697Z,29.70
2022-08-03T20:54:23.034Z,29.44
2022-08-03T20:56:58.207Z,29.78
2022-08-03T20:59:35.086Z,29.57
2022-08-03T21:02:19.604Z,29.44
2022-08-03T21:04:56.148Z,30.96
2022-08-03T21:07:24.095Z,30.66
2022-08-03T21:09:52.736Z,31.06
2022-08-03T21:12:33.735Z,31.63
2022-08-03T21:12:55.594Z,22.38
2022-08-03T21:12:58.400Z,23.08
2022-08-03T21:15:06.140Z,31.40
2022-08-03T21:17:41.991Z,31.05
2022-08-03T21:20:11.719Z,31.81
2022-08-03T21:22:39.631Z,31.93
2022-08-03T21:25:09.258Z,32.77
2022-08-03T21:27:37.412Z,33.64
2022-08-03T21:30:10.253Z,33.69
2022-08-03T21:32:40.149Z,33.76
2022-08-03T21:35:09.496Z,33.78
2022-08-03T21:37:37.314Z,33.80
2022-08-03T21:40:04.341Z,32.35
2022-08-03T21:42:30.913Z,33.51
2022-08-03T21:44:57.472Z,33.40
2022-08-03T21:47:24.802Z,33.81
2022-08-03T21:50:07.205Z,33.26
2022-08-03T21:52:41.138Z,34.16
2022-08-03T21:55:08.653Z,34.60
2022-08-03T21:57:51.616Z,35.14
2022-08-03T22:00:20.498Z,34.23
2022-08-03T22:02:58.273Z,33.07
2022-08-03T22:05:43.060Z,33.00
2022-08-03T22:08:13.601Z,32.42
2022-08-03T22:10:43.426Z,32.40
2022-08-03T22:13:11.633Z,32.21
2022-08-03T22:15:38.353Z,31.90
2022-08-03T22:18:05.576Z,32.00
2022-08-03T22:20:32.219Z,32.42
2022-08-03T22:23:05.432Z,34.03
2022-08-03T22:25:35.351Z,34.94
2022-08-03T22:28:06.704Z,35.40
2022-08-03T22:30:33.665Z,35.99
2022-08-03T22:33:02.802Z,35.83
2022-08-03T22:35:32.066Z,36.19
2022-08-03T22:38:11.145Z,35.49
2022-08-03T22:40:38.812Z,35.73
2022-08-03T22:43:08.559Z,35.58
2022-08-03T22:46:06.228Z,35.73
2022-08-03T22:48:22.702Z,36.78
2022-08-03T22:50:49.571Z,37.19
2022-08-03T22:53:21.696Z,37.30
2022-08-03T22:55:51.635Z,37.45
2022-08-03T22:58:22.685Z,37.24
2022-08-03T23:00:56.602Z,38.11
2022-08-03T23:03:58.934Z,37.63
2022-08-03T23:06:19.727Z,36.94
2022-08-03T23:08:47.622Z,36.86
2022-08-03T23:11:17.431Z,36.81
2022-08-03T23:13:51.424Z,36.45
2022-08-03T23:16:28.770Z,36.93
2022-08-03T23:18:56.444Z,37.09
2022-08-03T23:21:59.947Z,37.23
2022-08-03T23:24:25.962Z,36.82
2022-08-03T23:26:57.616Z,37.43
2022-08-03T23:29:26.115Z,37.64
2022-08-03T23:31:53.682Z,37.41
2022-08-03T23:34:40.351Z,36.94
2022-08-03T23:37:06.873Z,36.35
2022-08-03T23:39:35.214Z,37.76
2022-08-03T23:42:02.872Z,36.95
2022-08-03T23:44:31.220Z,37.04
2022-08-03T23:46:57.865Z,37.84
2022-08-03T23:49:24.456Z,37.49
2022-08-03T23:52:06.391Z,37.09
2022-08-03T23:54:53.219Z,37.62
2022-08-03T23:57:45.468Z,38.25
